sensor_id;sensor_type;location;lat;lon;timestamp;temperature;humidity
37276;DHT22;23166;51.150;21.620;2022-11-06T00:00:21;8.60;99.90
37276;DHT22;23166;51.150;21.620;2022-11-06T00:02:50;8.60;99.90
37276;DHT22;23166;51.150;21.620;2022-11-06T00:05:16;8.60;99.90
37276;DHT22;23166;51.150;21.620;2022-11-06T00:08:01;8.60;99.90
37276;DHT22;23166;51.150;21.620;2022-11-06T00:10:29;8.60;99.90
37276;DHT22;23166;51.150;21.620;2022-11-06T00:12:58;8.70;99.90
37276;DHT22;23166;51.150;21.620;2022-11-06T00:15:24;8.60;99.90
37276;DHT22;23166;51.150;21.620;2022-11-06T00:17:50;8.60;99.90
37276;DHT22;23166;51.150;21.620;2022-11-06T00:20:17;8.60;99.90
37276;DHT22;23166;51.150;21.620;2022-11-06T00:22:43;8.60;99.90
37276;DHT22;23166;51.150;21.620;2022-11-06T00:25:10;8.60;99.90
37276;DHT22;23166;51.150;21.620;2022-11-06T00:27:38;8.60;99.90
37276;DHT22;23166;51.150;21.620;2022-11-06T00:30:07;8.60;99.90
37276;DHT22;23166;51.150;21.620;2022-11-06T00:32:37;8.60;99.90
37276;DHT22;23166;51.150;21.620;2022-11-06T00:35:05;8.60;99.90
37276;DHT22;23166;51.150;21.620;2022-11-06T00:37:32;8.60;99.90
37276;DHT22;23166;51.150;21.620;2022-11-06T00:39:59;8.60;99.90
37276;DHT22;23166;51.150;21.620;2022-11-06T00:42:26;8.60;99.90
37276;DHT22;23166;51.150;21.620;2022-11-06T00:44:52;8.60;99.90
37276;DHT22;23166;51.150;21.620;2022-11-06T00:47:18;8.60;99.90
37276;DHT22;23166;51.150;21.620;2022-11-06T00:49:45;8.60;99.90
37276;DHT22;23166;51.150;21.620;2022-11-06T00:52:11;8.60;99.90
37276;DHT22;23166;51.150;21.620;2022-11-06T00:54:38;8.60;99.90
37276;DHT22;23166;51.150;21.620;2022-11-06T00:57:04;8.60;99.90
37276;DHT22;23166;51.150;21.620;2022-11-06T00:59:32;8.60;99.90
37276;DHT22;23166;51.150;21.620;2022-11-06T01:01:58;8.60;99.90
37276;DHT22;23166;51.150;21.620;2022-11-06T01:04:24;8.60;99.90
37276;DHT22;23166;51.150;21.620;2022-11-06T01:06:53;8.60;99.90
37276;DHT22;23166;51.150;21.620;2022-11-06T01:09:23;8.60;99.90
37276;DHT22;23166;51.150;21.620;2022-11-06T01:11:52;8.60;99.90
37276;DHT22;23166;51.150;21.620;2022-11-06T01:14:20;8.60;99.90
37276;DHT22;23166;51.150;21.620;2022-11-06T01:16:47;8.60;99.90
37276;DHT22;23166;51.150;21.620;2022-11-06T01:19:15;8.60;99.90
37276;DHT22;23166;51.150;21.620;2022-11-06T01:21:44;8.60;99.90
37276;DHT22;23166;51.150;21.620;2022-11-06T01:24:14;8.60;99.90
37276;DHT22;23166;51.150;21.620;2022-11-06T01:26:41;8.60;99.90
37276;DHT22;23166;51.150;21.620;2022-11-06T01:29:11;8.60;99.90
37276;DHT22;23166;51.150;21.620;2022-11-06T01:31:37;8.60;99.90
37276;DHT22;23166;51.150;21.620;2022-11-06T01:34:03;8.60;99.90
37276;DHT22;23166;51.150;21.620;2022-11-06T01:36:30;8.60;99.90
37276;DHT22;23166;51.150;21.620;2022-11-06T01:39:00;8.60;99.90
37276;DHT22;23166;51.150;21.620;2022-11-06T01:41:36;8.60;99.90
37276;DHT22;23166;51.150;21.620;2022-11-06T01:44:58;8.60;99.90
37276;DHT22;23166;51.150;21.620;2022-11-06T01:46:34;8.60;99.90
37276;DHT22;23166;51.150;21.620;2022-11-06T01:49:07;8.60;99.90
37276;DHT22;23166;51.150;21.620;2022-11-06T01:51:44;8.60;99.90
37276;DHT22;23166;51.150;21.620;2022-11-06T01:54:07;8.60;99.90
37276;DHT22;23166;51.150;21.620;2022-11-06T01:56:35;8.60;99.90
37276;DHT22;23166;51.150;21.620;2022-11-06T01:59:04;8.60;99.90
37276;DHT22;23166;51.150;21.620;2022-11-06T02:01:31;8.60;99.90
37276;DHT22;23166;51.150;21.620;2022-11-06T02:04:04;8.60;99.90
37276;DHT22;23166;51.150;21.620;2022-11-06T02:06:31;8.60;99.90
37276;DHT22;23166;51.150;21.620;2022-11-06T02:08:58;8.60;99.90
37276;DHT22;23166;51.150;21.620;2022-11-06T02:11:24;8.70;99.90
37276;DHT22;23166;51.150;21.620;2022-11-06T02:22:04;8.60;99.90
37276;DHT22;23166;51.150;21.620;2022-11-06T02:24:52;8.60;99.90
37276;DHT22;23166;51.150;21.620;2022-11-06T02:27:19;8.60;99.90
37276;DHT22;23166;51.150;21.620;2022-11-06T02:30:08;8.60;99.90
37276;DHT22;23166;51.150;21.620;2022-11-06T02:32:39;8.60;99.90
37276;DHT22;23166;51.150;21.620;2022-11-06T02:37:58;8.60;99.90
37276;DHT22;23166;51.150;21.620;2022-11-06T02:40:29;8.60;99.90
37276;DHT22;23166;51.150;21.620;2022-11-06T02:42:58;8.60;99.90
37276;DHT22;23166;51.150;21.620;2022-11-06T02:45:27;8.60;99.90
37276;DHT22;23166;51.150;21.620;2022-11-06T02:47:56;8.60;99.90
37276;DHT22;23166;51.150;21.620;2022-11-06T02:50:29;8.60;99.90
37276;DHT22;23166;51.150;21.620;2022-11-06T02:53:02;8.60;99.90
37276;DHT22;23166;51.150;21.620;2022-11-06T02:55:36;8.60;99.90
37276;DHT22;23166;51.150;21.620;2022-11-06T02:58:06;8.60;99.90
37276;DHT22;23166;51.150;21.620;2022-11-06T03:00:34;8.60;99.90
37276;DHT22;23166;51.150;21.620;2022-11-06T03:03:07;8.60;99.90
37276;DHT22;23166;51.150;21.620;2022-11-06T03:05:37;8.60;99.90
37276;DHT22;23166;51.150;21.620;2022-11-06T03:11:01;8.50;99.90
37276;DHT22;23166;51.150;21.620;2022-11-06T03:16:17;8.50;99.90
37276;DHT22;23166;51.150;21.620;2022-11-06T03:18:45;8.50;99.90
37276;DHT22;23166;51.150;21.620;2022-11-06T03:21:20;8.50;99.90
37276;DHT22;23166;51.150;21.620;2022-11-06T03:23:53;8.50;99.90
37276;DHT22;23166;51.150;21.620;2022-11-06T03:28:55;8.50;99.90
37276;DHT22;23166;51.150;21.620;2022-11-06T03:31:25;8.50;99.90
37276;DHT22;23166;51.150;21.620;2022-11-06T03:33:51;8.50;99.90
37276;DHT22;23166;51.150;21.620;2022-11-06T03:36:29;8.50;99.90
37276;DHT22;23166;51.150;21.620;2022-11-06T03:39:12;8.50;99.90
37276;DHT22;23166;51.150;21.620;2022-11-06T03:41:48;8.50;99.90
37276;DHT22;23166;51.150;21.620;2022-11-06T03:44:17;8.50;99.90
37276;DHT22;23166;51.150;21.620;2022-11-06T03:46:47;8.50;99.90
37276;DHT22;23166;51.150;21.620;2022-11-06T03:49:17;8.50;99.90
37276;DHT22;23166;51.150;21.620;2022-11-06T03:51:57;8.50;99.90
37276;DHT22;23166;51.150;21.620;2022-11-06T03:54:30;8.50;99.90
37276;DHT22;23166;51.150;21.620;2022-11-06T03:57:06;8.50;99.90
37276;DHT22;23166;51.150;21.620;2022-11-06T03:59:36;8.50;99.90
37276;DHT22;23166;51.150;21.620;2022-11-06T04:02:02;8.50;99.90
37276;DHT22;23166;51.150;21.620;2022-11-06T04:04:34;8.50;99.90
37276;DHT22;23166;51.150;21.620;2022-11-06T04:07:11;8.50;99.90
37276;DHT22;23166;51.150;21.620;2022-11-06T04:09:36;8.40;99.90
37276;DHT22;23166;51.150;21.620;2022-11-06T04:12:24;8.40;99.90
37276;DHT22;23166;51.150;21.620;2022-11-06T04:15:13;8.40;99.90
37276;DHT22;23166;51.150;21.620;2022-11-06T04:17:40;8.40;99.90
37276;DHT22;23166;51.150;21.620;2022-11-06T04:20:10;8.40;99.90
37276;DHT22;23166;51.150;21.620;2022-11-06T04:45:13;8.30;99.90
37276;DHT22;23166;51.150;21.620;2022-11-06T04:47:37;8.30;99.90
37276;DHT22;23166;51.150;21.620;2022-11-06T04:50:05;8.30;99.90
37276;DHT22;23166;51.150;21.620;2022-11-06T04:52:33;8.30;99.90
37276;DHT22;23166;51.150;21.620;2022-11-06T04:55:00;8.30;99.90
37276;DHT22;23166;51.150;21.620;2022-11-06T04:57:27;8.20;99.90
37276;DHT22;23166;51.150;21.620;2022-11-06T04:59:54;8.20;99.90
37276;DHT22;23166;51.150;21.620;2022-11-06T05:02:22;8.20;99.90
37276;DHT22;23166;51.150;21.620;2022-11-06T05:04:48;8.20;99.90
37276;DHT22;23166;51.150;21.620;2022-11-06T05:07:14;8.20;99.90
37276;DHT22;23166;51.150;21.620;2022-11-06T05:09:41;8.20;99.90
37276;DHT22;23166;51.150;21.620;2022-11-06T05:12:08;8.20;99.90
37276;DHT22;23166;51.150;21.620;2022-11-06T05:14:34;8.30;99.90
37276;DHT22;23166;51.150;21.620;2022-11-06T05:17:01;8.20;99.90
37276;DHT22;23166;51.150;21.620;2022-11-06T05:19:27;8.20;99.90
37276;DHT22;23166;51.150;21.620;2022-11-06T05:21:54;8.30;99.90
37276;DHT22;23166;51.150;21.620;2022-11-06T05:24:38;8.20;99.90
37276;DHT22;23166;51.150;21.620;2022-11-06T05:27:04;8.30;99.90
37276;DHT22;23166;51.150;21.620;2022-11-06T05:29:31;8.20;99.90
37276;DHT22;23166;51.150;21.620;2022-11-06T05:31:57;8.20;99.90
37276;DHT22;23166;51.150;21.620;2022-11-06T05:34:24;8.20;99.90
37276;DHT22;23166;51.150;21.620;2022-11-06T05:36:50;8.20;99.90
37276;DHT22;23166;51.150;21.620;2022-11-06T05:39:16;8.20;99.90
37276;DHT22;23166;51.150;21.620;2022-11-06T05:41:43;8.20;99.90
37276;DHT22;23166;51.150;21.620;2022-11-06T05:44:09;8.20;99.90
37276;DHT22;23166;51.150;21.620;2022-11-06T05:46:35;8.20;99.90
37276;DHT22;23166;51.150;21.620;2022-11-06T05:49:03;8.20;99.90
37276;DHT22;23166;51.150;21.620;2022-11-06T05:51:29;8.20;99.90
37276;DHT22;23166;51.150;21.620;2022-11-06T05:53:56;8.20;99.90
37276;DHT22;23166;51.150;21.620;2022-11-06T05:56:22;8.20;99.90
37276;DHT22;23166;51.150;21.620;2022-11-06T05:58:48;8.20;99.90
37276;DHT22;23166;51.150;21.620;2022-11-06T06:01:15;8.20;99.90
37276;DHT22;23166;51.150;21.620;2022-11-06T06:03:41;8.20;99.90
37276;DHT22;23166;51.150;21.620;2022-11-06T06:06:08;8.20;99.90
37276;DHT22;23166;51.150;21.620;2022-11-06T06:08:34;8.20;99.90
37276;DHT22;23166;51.150;21.620;2022-11-06T06:11:04;8.20;99.90
37276;DHT22;23166;51.150;21.620;2022-11-06T06:13:30;8.20;99.90
37276;DHT22;23166;51.150;21.620;2022-11-06T06:16:01;8.20;99.90
37276;DHT22;23166;51.150;21.620;2022-11-06T06:18:28;8.20;99.90
37276;DHT22;23166;51.150;21.620;2022-11-06T06:20:56;8.20;99.90
37276;DHT22;23166;51.150;21.620;2022-11-06T06:23:23;8.20;99.90
37276;DHT22;23166;51.150;21.620;2022-11-06T06:25:49;8.30;99.90
37276;DHT22;23166;51.150;21.620;2022-11-06T06:28:16;8.30;99.90
37276;DHT22;23166;51.150;21.620;2022-11-06T06:30:42;8.30;99.90
37276;DHT22;23166;51.150;21.620;2022-11-06T06:33:08;8.30;99.90
37276;DHT22;23166;51.150;21.620;2022-11-06T06:35:35;8.40;99.90
37276;DHT22;23166;51.150;21.620;2022-11-06T06:38:01;8.40;99.90
37276;DHT22;23166;51.150;21.620;2022-11-06T06:40:28;8.40;99.90
37276;DHT22;23166;51.150;21.620;2022-11-06T06:42:59;8.40;99.90
37276;DHT22;23166;51.150;21.620;2022-11-06T06:45:24;8.40;99.90
37276;DHT22;23166;51.150;21.620;2022-11-06T06:47:51;8.50;99.90
37276;DHT22;23166;51.150;21.620;2022-11-06T06:50:17;8.50;99.90
37276;DHT22;23166;51.150;21.620;2022-11-06T06:52:44;8.60;99.90
37276;DHT22;23166;51.150;21.620;2022-11-06T06:55:11;8.60;99.90
37276;DHT22;23166;51.150;21.620;2022-11-06T06:57:37;8.70;99.90
37276;DHT22;23166;51.150;21.620;2022-11-06T07:00:04;8.70;99.90
37276;DHT22;23166;51.150;21.620;2022-11-06T07:02:30;8.70;99.90
37276;DHT22;23166;51.150;21.620;2022-11-06T07:04:56;8.70;99.90
37276;DHT22;23166;51.150;21.620;2022-11-06T07:07:23;8.80;99.90
37276;DHT22;23166;51.150;21.620;2022-11-06T07:09:49;8.80;99.90
37276;DHT22;23166;51.150;21.620;2022-11-06T07:12:17;8.90;99.90
37276;DHT22;23166;51.150;21.620;2022-11-06T07:14:43;8.90;99.90
37276;DHT22;23166;51.150;21.620;2022-11-06T07:17:10;8.90;99.90
37276;DHT22;23166;51.150;21.620;2022-11-06T07:19:36;8.90;99.90
37276;DHT22;23166;51.150;21.620;2022-11-06T07:22:02;8.90;99.90
37276;DHT22;23166;51.150;21.620;2022-11-06T07:24:29;9.00;99.90
37276;DHT22;23166;51.150;21.620;2022-11-06T07:26:56;9.00;99.90
37276;DHT22;23166;51.150;21.620;2022-11-06T07:29:23;9.10;99.90
37276;DHT22;23166;51.150;21.620;2022-11-06T07:31:49;9.20;99.90
37276;DHT22;23166;51.150;21.620;2022-11-06T07:34:15;9.20;99.90
37276;DHT22;23166;51.150;21.620;2022-11-06T07:36:42;9.30;99.90
37276;DHT22;23166;51.150;21.620;2022-11-06T07:39:08;9.50;99.90
37276;DHT22;23166;51.150;21.620;2022-11-06T07:41:34;9.50;99.90
37276;DHT22;23166;51.150;21.620;2022-11-06T07:44:01;9.60;99.90
37276;DHT22;23166;51.150;21.620;2022-11-06T07:46:27;9.70;99.90
37276;DHT22;23166;51.150;21.620;2022-11-06T07:48:53;9.70;99.90
37276;DHT22;23166;51.150;21.620;2022-11-06T07:51:21;9.70;99.90
37276;DHT22;23166;51.150;21.620;2022-11-06T07:53:47;9.70;99.90
37276;DHT22;23166;51.150;21.620;2022-11-06T07:56:14;9.70;99.90
37276;DHT22;23166;51.150;21.620;2022-11-06T07:58:40;9.70;99.90
37276;DHT22;23166;51.150;21.620;2022-11-06T08:01:12;9.70;99.90
37276;DHT22;23166;51.150;21.620;2022-11-06T08:03:39;9.60;99.90
37276;DHT22;23166;51.150;21.620;2022-11-06T08:06:06;9.60;99.90
37276;DHT22;23166;51.150;21.620;2022-11-06T08:08:32;9.60;99.90
37276;DHT22;23166;51.150;21.620;2022-11-06T08:11:06;9.60;99.90
37276;DHT22;23166;51.150;21.620;2022-11-06T08:13:33;9.70;99.90
37276;DHT22;23166;51.150;21.620;2022-11-06T08:16:05;9.70;99.90
37276;DHT22;23166;51.150;21.620;2022-11-06T08:18:32;9.60;99.90
37276;DHT22;23166;51.150;21.620;2022-11-06T08:20:58;9.70;99.90
37276;DHT22;23166;51.150;21.620;2022-11-06T08:23:25;9.70;99.90
37276;DHT22;23166;51.150;21.620;2022-11-06T08:25:54;9.70;99.90
37276;DHT22;23166;51.150;21.620;2022-11-06T08:28:21;9.70;99.90
37276;DHT22;23166;51.150;21.620;2022-11-06T08:30:48;9.70;99.90
37276;DHT22;23166;51.150;21.620;2022-11-06T08:33:14;9.70;99.90
37276;DHT22;23166;51.150;21.620;2022-11-06T08:35:42;9.70;99.90
37276;DHT22;23166;51.150;21.620;2022-11-06T08:38:08;9.60;99.90
37276;DHT22;23166;51.150;21.620;2022-11-06T08:40:36;9.60;99.90
37276;DHT22;23166;51.150;21.620;2022-11-06T08:43:06;9.60;99.90
37276;DHT22;23166;51.150;21.620;2022-11-06T08:45:42;9.60;99.90
37276;DHT22;23166;51.150;21.620;2022-11-06T08:48:06;9.60;99.90
37276;DHT22;23166;51.150;21.620;2022-11-06T08:50:34;9.60;99.90
37276;DHT22;23166;51.150;21.620;2022-11-06T08:53:01;9.50;99.90
37276;DHT22;23166;51.150;21.620;2022-11-06T08:55:30;9.50;99.90
37276;DHT22;23166;51.150;21.620;2022-11-06T08:57:56;9.50;99.90
37276;DHT22;23166;51.150;21.620;2022-11-06T09:00:23;9.50;99.90
37276;DHT22;23166;51.150;21.620;2022-11-06T09:02:49;9.60;99.90
37276;DHT22;23166;51.150;21.620;2022-11-06T09:05:16;9.60;99.90
37276;DHT22;23166;51.150;21.620;2022-11-06T09:07:42;9.60;99.90
37276;DHT22;23166;51.150;21.620;2022-11-06T09:10:09;9.60;99.90
37276;DHT22;23166;51.150;21.620;2022-11-06T09:12:35;9.70;99.90
37276;DHT22;23166;51.150;21.620;2022-11-06T09:15:02;9.70;99.90
37276;DHT22;23166;51.150;21.620;2022-11-06T09:17:29;9.70;99.90
37276;DHT22;23166;51.150;21.620;2022-11-06T09:19:55;9.70;99.90
37276;DHT22;23166;51.150;21.620;2022-11-06T09:22:22;9.70;99.90
37276;DHT22;23166;51.150;21.620;2022-11-06T09:24:48;9.70;99.90
37276;DHT22;23166;51.150;21.620;2022-11-06T09:27:15;9.70;99.90
37276;DHT22;23166;51.150;21.620;2022-11-06T09:29:41;9.60;99.90
37276;DHT22;23166;51.150;21.620;2022-11-06T09:32:09;9.60;99.90
37276;DHT22;23166;51.150;21.620;2022-11-06T09:34:36;9.50;99.90
37276;DHT22;23166;51.150;21.620;2022-11-06T09:37:02;9.50;99.90
37276;DHT22;23166;51.150;21.620;2022-11-06T09:39:29;9.40;99.90
37276;DHT22;23166;51.150;21.620;2022-11-06T09:42:00;9.50;99.90
37276;DHT22;23166;51.150;21.620;2022-11-06T09:47:19;9.50;99.90
37276;DHT22;23166;51.150;21.620;2022-11-06T09:54:57;9.50;99.90
37276;DHT22;23166;51.150;21.620;2022-11-06T09:57:32;9.40;99.90
37276;DHT22;23166;51.150;21.620;2022-11-06T09:59:56;9.40;99.90
37276;DHT22;23166;51.150;21.620;2022-11-06T10:05:06;9.40;99.90
37276;DHT22;23166;51.150;21.620;2022-11-06T10:07:35;9.40;99.90
37276;DHT22;23166;51.150;21.620;2022-11-06T10:10:06;9.50;99.90
37276;DHT22;23166;51.150;21.620;2022-11-06T10:12:52;9.60;99.90
37276;DHT22;23166;51.150;21.620;2022-11-06T10:15:27;9.80;99.90
37276;DHT22;23166;51.150;21.620;2022-11-06T10:18:10;9.90;99.90
37276;DHT22;23166;51.150;21.620;2022-11-06T10:20:30;10.00;99.90
37276;DHT22;23166;51.150;21.620;2022-11-06T10:31:55;10.30;99.90
37276;DHT22;23166;51.150;21.620;2022-11-06T10:34:24;10.30;99.00
37276;DHT22;23166;51.150;21.620;2022-11-06T10:36:55;10.30;94.50
37276;DHT22;23166;51.150;21.620;2022-11-06T10:39:26;10.30;99.90
37276;DHT22;23166;51.150;21.620;2022-11-06T10:41:58;10.40;99.90
37276;DHT22;23166;51.150;21.620;2022-11-06T10:44:37;10.50;99.90
37276;DHT22;23166;51.150;21.620;2022-11-06T10:47:00;10.50;99.90
37276;DHT22;23166;51.150;21.620;2022-11-06T10:49:52;10.70;99.90
37276;DHT22;23166;51.150;21.620;2022-11-06T10:57:49;10.80;90.30
37276;DHT22;23166;51.150;21.620;2022-11-06T11:00:16;10.80;86.80
37276;DHT22;23166;51.150;21.620;2022-11-06T11:02:51;10.90;95.50
37276;DHT22;23166;51.150;21.620;2022-11-06T11:05:20;10.90;96.00
37276;DHT22;23166;51.150;21.620;2022-11-06T11:07:48;10.90;99.90
37276;DHT22;23166;51.150;21.620;2022-11-06T11:10:30;11.00;99.70
37276;DHT22;23166;51.150;21.620;2022-11-06T11:12:59;11.10;91.40
37276;DHT22;23166;51.150;21.620;2022-11-06T11:15:37;11.20;95.90
37276;DHT22;23166;51.150;21.620;2022-11-06T11:18:23;11.30;96.80
37276;DHT22;23166;51.150;21.620;2022-11-06T11:23:33;11.50;98.90
37276;DHT22;23166;51.150;21.620;2022-11-06T11:26:20;11.80;86.80
37276;DHT22;23166;51.150;21.620;2022-11-06T11:28:54;11.90;40.00
37276;DHT22;23166;51.150;21.620;2022-11-06T11:31:34;12.00;79.80
37276;DHT22;23166;51.150;21.620;2022-11-06T11:34:06;12.10;90.20
37276;DHT22;23166;51.150;21.620;2022-11-06T11:36:49;12.20;85.90
37276;DHT22;23166;51.150;21.620;2022-11-06T11:39:17;12.30;78.50
37276;DHT22;23166;51.150;21.620;2022-11-06T11:41:44;12.40;92.00
37276;DHT22;23166;51.150;21.620;2022-11-06T11:44:18;12.40;96.50
37276;DHT22;23166;51.150;21.620;2022-11-06T11:46:54;12.40;74.90
37276;DHT22;23166;51.150;21.620;2022-11-06T11:49:31;12.40;72.90
37276;DHT22;23166;51.150;21.620;2022-11-06T11:51:59;12.40;34.00
37276;DHT22;23166;51.150;21.620;2022-11-06T11:54:33;12.20;51.00
37276;DHT22;23166;51.150;21.620;2022-11-06T11:59:36;11.80;79.30
37276;DHT22;23166;51.150;21.620;2022-11-06T12:04:35;11.40;95.10
37276;DHT22;23166;51.150;21.620;2022-11-06T12:07:05;11.20;99.00
37276;DHT22;23166;51.150;21.620;2022-11-06T12:09:39;11.10;99.90
37276;DHT22;23166;51.150;21.620;2022-11-06T12:12:02;11.00;99.90
37276;DHT22;23166;51.150;21.620;2022-11-06T12:14:35;11.00;99.90
37276;DHT22;23166;51.150;21.620;2022-11-06T12:17:20;11.00;99.90
37276;DHT22;23166;51.150;21.620;2022-11-06T12:19:53;11.10;99.90
37276;DHT22;23166;51.150;21.620;2022-11-06T12:22:27;11.30;99.90
37276;DHT22;23166;51.150;21.620;2022-11-06T12:27:44;11.60;85.50
37276;DHT22;23166;51.150;21.620;2022-11-06T12:30:09;11.70;93.60
37276;DHT22;23166;51.150;21.620;2022-11-06T12:35:36;11.70;90.40
37276;DHT22;23166;51.150;21.620;2022-11-06T12:41:25;11.40;76.70
37276;DHT22;23166;51.150;21.620;2022-11-06T12:43:53;11.20;79.60
37276;DHT22;23166;51.150;21.620;2022-11-06T12:46:35;10.90;88.60
37276;DHT22;23166;51.150;21.620;2022-11-06T13:00:13;10.40;99.90
37276;DHT22;23166;51.150;21.620;2022-11-06T13:16:50;10.20;99.90
37276;DHT22;23166;51.150;21.620;2022-11-06T13:19:32;10.10;97.10
37276;DHT22;23166;51.150;21.620;2022-11-06T13:25:07;10.00;99.90
37276;DHT22;23166;51.150;21.620;2022-11-06T13:27:41;9.90;99.90
37276;DHT22;23166;51.150;21.620;2022-11-06T13:30:22;9.90;99.90
37276;DHT22;23166;51.150;21.620;2022-11-06T13:35:50;9.70;99.90
37276;DHT22;23166;51.150;21.620;2022-11-06T13:38:27;9.70;99.90
37276;DHT22;23166;51.150;21.620;2022-11-06T13:40:56;9.60;99.90
37276;DHT22;23166;51.150;21.620;2022-11-06T13:57:29;9.30;99.90
37276;DHT22;23166;51.150;21.620;2022-11-06T14:00:09;9.10;99.90
37276;DHT22;23166;51.150;21.620;2022-11-06T14:07:58;8.80;99.90
37276;DHT22;23166;51.150;21.620;2022-11-06T14:10:34;8.70;99.90
37276;DHT22;23166;51.150;21.620;2022-11-06T14:13:04;8.60;99.90
37276;DHT22;23166;51.150;21.620;2022-11-06T14:15:40;8.50;99.90
37276;DHT22;23166;51.150;21.620;2022-11-06T14:18:05;8.40;99.90
37276;DHT22;23166;51.150;21.620;2022-11-06T14:20:37;8.40;99.90
37276;DHT22;23166;51.150;21.620;2022-11-06T14:26:09;8.20;99.90
37276;DHT22;23166;51.150;21.620;2022-11-06T14:28:38;8.10;99.90
37276;DHT22;23166;51.150;21.620;2022-11-06T14:31:04;7.90;99.90
37276;DHT22;23166;51.150;21.620;2022-11-06T14:36:25;7.70;99.90
37276;DHT22;23166;51.150;21.620;2022-11-06T14:38:41;7.60;99.90
37276;DHT22;23166;51.150;21.620;2022-11-06T14:44:03;7.40;99.90
37276;DHT22;23166;51.150;21.620;2022-11-06T14:46:31;7.20;99.90
37276;DHT22;23166;51.150;21.620;2022-11-06T14:49:14;7.00;99.90
37276;DHT22;23166;51.150;21.620;2022-11-06T14:51:38;6.90;99.90
37276;DHT22;23166;51.150;21.620;2022-11-06T14:54:16;6.70;99.90
37276;DHT22;23166;51.150;21.620;2022-11-06T14:56:36;6.60;99.90
37276;DHT22;23166;51.150;21.620;2022-11-06T14:59:15;6.50;99.90
37276;DHT22;23166;51.150;21.620;2022-11-06T15:01:37;6.30;99.90
37276;DHT22;23166;51.150;21.620;2022-11-06T15:04:05;6.20;99.90
37276;DHT22;23166;51.150;21.620;2022-11-06T15:06:39;6.10;99.90
37276;DHT22;23166;51.150;21.620;2022-11-06T15:11:59;5.90;99.90
37276;DHT22;23166;51.150;21.620;2022-11-06T15:17:02;5.70;99.90
37276;DHT22;23166;51.150;21.620;2022-11-06T15:19:41;5.60;99.90
37276;DHT22;23166;51.150;21.620;2022-11-06T15:27:55;5.20;99.90
37276;DHT22;23166;51.150;21.620;2022-11-06T15:30:23;5.10;99.90
37276;DHT22;23166;51.150;21.620;2022-11-06T15:32:52;5.00;99.90
37276;DHT22;23166;51.150;21.620;2022-11-06T15:35:24;4.90;99.90
37276;DHT22;23166;51.150;21.620;2022-11-06T15:37:55;4.80;99.90
37276;DHT22;23166;51.150;21.620;2022-11-06T15:40:31;4.70;99.90
37276;DHT22;23166;51.150;21.620;2022-11-06T15:43:06;4.60;99.90
37276;DHT22;23166;51.150;21.620;2022-11-06T15:45:33;4.60;99.90
37276;DHT22;23166;51.150;21.620;2022-11-06T15:48:15;4.50;99.90
37276;DHT22;23166;51.150;21.620;2022-11-06T15:50:33;4.50;99.90
37276;DHT22;23166;51.150;21.620;2022-11-06T15:55:47;4.40;99.90
37276;DHT22;23166;51.150;21.620;2022-11-06T16:00:48;4.20;99.90
37276;DHT22;23166;51.150;21.620;2022-11-06T16:03:17;4.20;99.90
37276;DHT22;23166;51.150;21.620;2022-11-06T16:05:44;4.10;99.90
37276;DHT22;23166;51.150;21.620;2022-11-06T16:08:17;4.10;99.90
37276;DHT22;23166;51.150;21.620;2022-11-06T16:10:45;4.00;99.90
37276;DHT22;23166;51.150;21.620;2022-11-06T16:13:15;4.00;99.90
37276;DHT22;23166;51.150;21.620;2022-11-06T16:15:58;4.00;99.90
37276;DHT22;23166;51.150;21.620;2022-11-06T16:21:15;4.00;99.90
37276;DHT22;23166;51.150;21.620;2022-11-06T16:28:49;3.80;99.90
37276;DHT22;23166;51.150;21.620;2022-11-06T16:31:20;3.70;99.90
37276;DHT22;23166;51.150;21.620;2022-11-06T16:33:58;3.50;99.90
37276;DHT22;23166;51.150;21.620;2022-11-06T16:36:26;3.40;99.90
37276;DHT22;23166;51.150;21.620;2022-11-06T16:38:53;3.30;99.90
37276;DHT22;23166;51.150;21.620;2022-11-06T16:44:27;3.20;99.90
37276;DHT22;23166;51.150;21.620;2022-11-06T16:47:14;3.10;99.90
37276;DHT22;23166;51.150;21.620;2022-11-06T16:49:48;2.90;99.90
37276;DHT22;23166;51.150;21.620;2022-11-06T16:57:44;2.80;99.90
37276;DHT22;23166;51.150;21.620;2022-11-06T17:02:48;2.70;99.90
37276;DHT22;23166;51.150;21.620;2022-11-06T17:05:17;2.70;99.90
37276;DHT22;23166;51.150;21.620;2022-11-06T17:07:45;2.70;99.90
37276;DHT22;23166;51.150;21.620;2022-11-06T17:10:38;2.70;99.90
37276;DHT22;23166;51.150;21.620;2022-11-06T17:15:55;2.60;99.90
37276;DHT22;23166;51.150;21.620;2022-11-06T17:18:24;2.60;99.90
37276;DHT22;23166;51.150;21.620;2022-11-06T17:21:03;2.60;99.90
37276;DHT22;23166;51.150;21.620;2022-11-06T17:23:27;2.50;99.90
37276;DHT22;23166;51.150;21.620;2022-11-06T17:28:30;2.40;99.90
37276;DHT22;23166;51.150;21.620;2022-11-06T17:30:57;2.40;99.90
37276;DHT22;23166;51.150;21.620;2022-11-06T17:33:24;2.30;99.90
37276;DHT22;23166;51.150;21.620;2022-11-06T17:35:50;2.20;99.90
37276;DHT22;23166;51.150;21.620;2022-11-06T17:38:16;2.20;99.90
37276;DHT22;23166;51.150;21.620;2022-11-06T17:40:43;2.10;99.90
37276;DHT22;23166;51.150;21.620;2022-11-06T17:43:10;2.10;99.90
37276;DHT22;23166;51.150;21.620;2022-11-06T17:45:37;2.10;99.90
37276;DHT22;23166;51.150;21.620;2022-11-06T17:48:04;2.10;99.90
37276;DHT22;23166;51.150;21.620;2022-11-06T17:50:30;2.10;99.90
37276;DHT22;23166;51.150;21.620;2022-11-06T17:52:59;2.00;99.90
37276;DHT22;23166;51.150;21.620;2022-11-06T17:55:25;2.00;99.90
37276;DHT22;23166;51.150;21.620;2022-11-06T17:57:52;1.90;99.90
37276;DHT22;23166;51.150;21.620;2022-11-06T18:00:18;1.90;99.90
37276;DHT22;23166;51.150;21.620;2022-11-06T18:02:45;1.90;99.90
37276;DHT22;23166;51.150;21.620;2022-11-06T18:05:12;1.90;99.90
37276;DHT22;23166;51.150;21.620;2022-11-06T18:07:38;1.90;99.90
37276;DHT22;23166;51.150;21.620;2022-11-06T18:10:05;1.90;99.90
37276;DHT22;23166;51.150;21.620;2022-11-06T18:12:31;1.80;99.90
37276;DHT22;23166;51.150;21.620;2022-11-06T18:14:58;1.80;99.90
37276;DHT22;23166;51.150;21.620;2022-11-06T18:17:24;1.70;99.90
37276;DHT22;23166;51.150;21.620;2022-11-06T18:19:51;1.70;99.90
37276;DHT22;23166;51.150;21.620;2022-11-06T18:22:17;1.60;99.90
37276;DHT22;23166;51.150;21.620;2022-11-06T18:24:44;1.60;99.90
37276;DHT22;23166;51.150;21.620;2022-11-06T18:27:10;1.60;99.90
37276;DHT22;23166;51.150;21.620;2022-11-06T18:29:36;1.50;99.90
37276;DHT22;23166;51.150;21.620;2022-11-06T18:32:03;1.50;99.90
37276;DHT22;23166;51.150;21.620;2022-11-06T18:34:30;1.50;99.90
37276;DHT22;23166;51.150;21.620;2022-11-06T18:36:56;1.50;99.90
37276;DHT22;23166;51.150;21.620;2022-11-06T18:39:22;1.50;99.90
37276;DHT22;23166;51.150;21.620;2022-11-06T18:41:49;1.50;99.90
37276;DHT22;23166;51.150;21.620;2022-11-06T18:44:16;1.50;99.90
37276;DHT22;23166;51.150;21.620;2022-11-06T18:46:43;1.60;99.90